createdAt,value
2017-05-18T00:02:27.310Z,19.80
2017-05-18T00:04:57.112Z,19.70
2017-05-18T00:07:26.214Z,19.70
2017-05-18T00:09:55.301Z,19.70
2017-05-18T00:12:25.150Z,19.60
2017-05-18T00:14:54.291Z,19.60
2017-05-18T00:17:23.362Z,19.60
2017-05-18T00:19:52.491Z,19.60
2017-05-18T00:22:21.556Z,19.60
2017-05-18T00:24:50.674Z,19.60
2017-05-18T00:27:19.760Z,19.50
2017-05-18T00:29:48.885Z,19.50
2017-05-18T00:32:17.947Z,19.50
2017-05-18T00:34:47.076Z,19.50
2017-05-18T00:37:16.893Z,19.40
2017-05-18T00:39:46.004Z,19.40
2017-05-18T00:42:15.803Z,19.40
2017-05-18T00:44:44.935Z,19.40
2017-05-18T00:47:13.994Z,19.30
2017-05-18T00:49:43.121Z,19.30
2017-05-18T00:52:12.511Z,19.30
2017-05-18T00:54:41.614Z,19.20
2017-05-18T00:57:10.691Z,19.20
2017-05-18T00:59:40.370Z,19.20
2017-05-18T01:02:09.440Z,19.20
2017-05-18T01:04:38.563Z,19.20
2017-05-18T01:07:08.382Z,19.10
2017-05-18T01:09:37.471Z,19.10
2017-05-18T01:12:07.280Z,19.00
2017-05-18T01:14:37.131Z,19.00
2017-05-18T01:17:06.246Z,19.10
2017-05-18T01:19:35.312Z,19.00
2017-05-18T01:22:04.427Z,19.00
2017-05-18T01:24:33.496Z,19.00
2017-05-18T01:27:02.596Z,18.90
2017-05-18T01:29:31.699Z,18.90
2017-05-18T01:32:00.808Z,18.90
2017-05-18T01:34:29.877Z,18.90
2017-05-18T01:36:58.984Z,18.90
2017-05-18T01:39:28.099Z,18.90
2017-05-18T01:41:57.172Z,18.90
2017-05-18T01:44:26.317Z,18.90
2017-05-18T01:46:55.378Z,18.80
2017-05-18T01:49:24.515Z,18.80
2017-05-18T01:51:53.639Z,18.80
2017-05-18T01:54:22.727Z,18.80
2017-05-18T01:56:52.578Z,18.70
2017-05-18T01:59:21.643Z,18.70
2017-05-18T02:01:51.067Z,18.70
2017-05-18T02:04:20.151Z,18.70
2017-05-18T02:06:49.263Z,18.60
2017-05-18T02:09:18.341Z,18.60
2017-05-18T02:11:47.491Z,18.60
2017-05-18T02:14:17.321Z,18.50
2017-05-18T02:16:46.573Z,18.60
2017-05-18T02:19:15.632Z,18.50
2017-05-18T02:21:45.477Z,18.40
2017-05-18T02:24:14.527Z,18.50
2017-05-18T02:26:43.650Z,18.50
2017-05-18T02:29:12.719Z,18.40
2017-05-18T02:31:42.560Z,18.30
2017-05-18T02:34:11.631Z,18.40
2017-05-18T02:36:40.754Z,18.30
2017-05-18T02:39:09.838Z,18.30
2017-05-18T02:41:38.979Z,18.30
2017-05-18T02:44:08.062Z,18.30
2017-05-18T02:46:37.177Z,18.30
2017-05-18T02:49:07.046Z,18.20
2017-05-18T02:51:36.132Z,18.20
2017-05-18T02:54:05.234Z,18.20
2017-05-18T02:56:34.335Z,18.10
2017-05-18T02:59:03.399Z,18.10
2017-05-18T03:01:32.507Z,18.10
2017-05-18T03:04:01.608Z,18.10
2017-05-18T03:06:30.706Z,18.10
2017-05-18T03:08:59.798Z,18.10
2017-05-18T03:11:28.871Z,18.10
2017-05-18T03:13:57.980Z,18.10
2017-05-18T03:16:27.132Z,18.10
2017-05-18T03:18:56.207Z,18.10
2017-05-18T03:21:25.316Z,18.10
2017-05-18T03:23:54.417Z,18.20
2017-05-18T03:26:23.490Z,18.10
2017-05-18T03:28:53.399Z,18.10
2017-05-18T03:31:22.467Z,18.10
2017-05-18T03:33:51.584Z,18.10
2017-05-18T03:36:20.705Z,18.10
2017-05-18T03:38:49.776Z,18.00
2017-05-18T03:41:18.909Z,18.00
2017-05-18T03:43:48.727Z,18.00
2017-05-18T03:46:18.575Z,17.90
2017-05-18T03:48:47.647Z,18.00
2017-05-18T03:51:16.744Z,18.00
2017-05-18T03:53:45.896Z,18.00
2017-05-18T03:56:14.940Z,18.10
2017-05-18T03:58:44.067Z,18.10
2017-05-18T04:01:13.130Z,18.20
2017-05-18T04:03:42.252Z,18.20
2017-05-18T04:06:11.323Z,18.20
2017-05-18T04:08:40.419Z,18.20
2017-05-18T04:11:09.495Z,18.20
2017-05-18T04:13:38.605Z,18.30
2017-05-18T04:16:07.671Z,18.30
2017-05-18T04:18:37.519Z,18.30
2017-05-18T04:21:06.575Z,18.40
2017-05-18T04:23:35.678Z,18.50
2017-05-18T04:26:05.480Z,18.40
2017-05-18T04:28:34.640Z,18.50
2017-05-18T04:31:03.700Z,18.50
2017-05-18T04:33:32.827Z,18.50
2017-05-18T04:36:01.894Z,18.50
2017-05-18T04:38:31.001Z,18.50
2017-05-18T04:41:00.072Z,18.60
2017-05-18T04:43:29.167Z,18.60
2017-05-18T04:45:58.243Z,18.60
2017-05-18T04:48:27.342Z,18.60
2017-05-18T04:50:57.208Z,18.60
2017-05-18T04:53:26.500Z,18.70
2017-05-18T04:55:55.639Z,18.80
2017-05-18T04:58:25.516Z,18.70
2017-05-18T05:00:54.587Z,18.90
2017-05-18T05:03:23.762Z,19.00
2017-05-18T05:05:52.868Z,19.00
2017-05-18T05:08:21.994Z,19.10
2017-05-18T05:10:51.086Z,19.20
2017-05-18T05:13:20.349Z,19.20
2017-05-18T05:15:49.498Z,19.20
2017-05-18T05:18:19.358Z,19.30
2017-05-18T05:20:48.466Z,19.30
2017-05-18T05:23:17.544Z,19.50
2017-05-18T05:25:47.387Z,19.40
2017-05-18T05:28:16.475Z,19.50
2017-05-18T05:30:46.058Z,19.60
2017-05-18T05:33:15.135Z,19.60
2017-05-18T05:35:44.236Z,19.70
2017-05-18T05:38:13.383Z,19.80
2017-05-18T05:40:42.455Z,19.90
2017-05-18T05:43:11.561Z,19.90
2017-05-18T05:45:40.671Z,20.00
2017-05-18T05:48:09.789Z,20.00
2017-05-18T05:50:39.615Z,20.10
2017-05-18T05:53:08.780Z,20.20
2017-05-18T05:55:37.968Z,20.30
2017-05-18T05:58:07.084Z,20.40
2017-05-18T06:00:36.210Z,20.50
2017-05-18T06:03:05.328Z,20.60
2017-05-18T06:05:34.444Z,20.80
2017-05-18T06:08:03.536Z,20.80
2017-05-18T06:10:32.691Z,21.00
2017-05-18T06:13:01.778Z,21.10
2017-05-18T06:15:31.702Z,21.10
2017-05-18T06:18:00.744Z,21.20
2017-05-18T06:20:29.874Z,21.30
2017-05-18T06:22:58.959Z,21.40
2017-05-18T06:25:28.858Z,21.30
2017-05-18T06:27:57.951Z,21.50
2017-05-18T06:30:27.071Z,21.50
2017-05-18T06:32:56.185Z,21.60
2017-05-18T06:35:26.042Z,21.70
2017-05-18T06:37:55.164Z,21.80
2017-05-18T06:40:25.001Z,21.80
2017-05-18T06:42:54.896Z,21.90
2017-05-18T06:45:23.983Z,22.10
2017-05-18T06:47:53.090Z,22.20
2017-05-18T06:50:22.241Z,22.20
2017-05-18T06:52:51.321Z,22.40
2017-05-18T06:55:20.440Z,22.40
2017-05-18T06:57:49.555Z,22.50
2017-05-18T07:00:18.650Z,22.70
2017-05-18T07:02:47.773Z,22.70
2017-05-18T07:05:16.858Z,22.80
2017-05-18T07:07:45.983Z,22.90
2017-05-18T07:10:15.068Z,23.00
2017-05-18T07:12:44.264Z,23.10
2017-05-18T07:15:13.356Z,23.20
2017-05-18T07:17:42.574Z,23.20
2017-05-18T07:20:11.643Z,23.30
2017-05-18T07:22:40.807Z,23.40
2017-05-18T07:25:09.922Z,23.50
2017-05-18T07:27:39.013Z,23.70
2017-05-18T07:30:08.110Z,23.80
2017-05-18T07:32:37.942Z,23.80
2017-05-18T07:35:07.826Z,23.80
2017-05-18T07:37:36.911Z,23.90
2017-05-18T07:40:06.064Z,23.90
2017-05-18T07:42:35.148Z,24.00
2017-05-18T07:45:04.983Z,24.00
2017-05-18T07:47:34.073Z,24.20
2017-05-18T07:50:03.171Z,24.20
2017-05-18T07:52:32.312Z,24.30
2017-05-18T07:55:01.426Z,24.40
2017-05-18T07:57:30.574Z,24.40
2017-05-18T07:59:59.752Z,24.50
2017-05-18T08:02:28.919Z,24.60
2017-05-18T08:04:58.791Z,24.70
2017-05-18T08:07:27.874Z,24.80
2017-05-18T08:09:57.003Z,24.90
2017-05-18T08:12:26.075Z,25.00
2017-05-18T08:14:55.200Z,25.00
2017-05-18T08:17:24.304Z,25.10
2017-05-18T08:19:54.163Z,25.20
2017-05-18T08:22:23.238Z,25.30
2017-05-18T08:24:52.375Z,25.40
2017-05-18T08:27:21.516Z,25.50
2017-05-18T08:29:50.618Z,25.60
2017-05-18T08:32:19.736Z,25.70
2017-05-18T08:34:48.815Z,25.70
2017-05-18T08:37:17.961Z,25.90
2017-05-18T08:39:47.863Z,26.00
2017-05-18T08:42:16.960Z,26.10
2017-05-18T08:44:46.863Z,26.20
2017-05-18T08:47:15.947Z,26.40
2017-05-18T08:49:45.095Z,26.40
2017-05-18T08:52:14.252Z,26.40
2017-05-18T08:54:43.392Z,26.50
2017-05-18T08:57:12.478Z,26.50
2017-05-18T08:59:41.709Z,26.60
2017-05-18T09:02:10.770Z,26.70
2017-05-18T09:04:40.154Z,26.80
2017-05-18T09:07:09.992Z,26.90
2017-05-18T09:09:39.951Z,27.20
2017-05-18T09:12:09.840Z,27.10
2017-05-18T09:14:39.019Z,27.20
2017-05-18T09:17:08.099Z,27.30
2017-05-18T09:19:37.985Z,27.20
2017-05-18T09:22:07.825Z,27.20
2017-05-18T09:24:36.958Z,27.30
2017-05-18T09:27:06.111Z,27.30
2017-05-18T09:29:35.939Z,27.20
2017-05-18T09:32:05.140Z,27.40
2017-05-18T09:34:34.246Z,27.40
2017-05-18T09:37:03.378Z,27.50
2017-05-18T09:39:32.498Z,27.40
2017-05-18T09:42:01.651Z,27.50
2017-05-18T09:44:30.776Z,27.50
2017-05-18T09:46:59.920Z,27.50
2017-05-18T09:49:29.000Z,27.40
2017-05-18T09:51:58.123Z,27.50
2017-05-18T09:54:27.274Z,27.50
2017-05-18T09:56:56.349Z,27.40
2017-05-18T09:59:25.452Z,27.50
2017-05-18T10:01:54.566Z,27.60
2017-05-18T10:04:24.834Z,27.50
2017-05-18T10:06:53.939Z,27.30
2017-05-18T10:09:23.069Z,27.20
2017-05-18T10:11:52.157Z,27.10
2017-05-18T10:14:21.303Z,27.10
2017-05-18T10:16:50.454Z,27.10
2017-05-18T10:19:19.575Z,27.00
2017-05-18T10:21:49.461Z,26.90
2017-05-18T10:24:18.547Z,26.80
2017-05-18T10:26:47.679Z,26.90
2017-05-18T10:29:16.804Z,27.00
2017-05-18T10:31:46.203Z,27.00
2017-05-18T10:34:15.328Z,27.00
2017-05-18T10:36:44.456Z,27.00
2017-05-18T10:39:14.382Z,26.90
2017-05-18T10:41:43.465Z,26.90
2017-05-18T10:44:13.341Z,26.90
2017-05-18T10:46:42.513Z,26.90
2017-05-18T10:49:11.570Z,26.90
2017-05-18T10:51:40.774Z,26.90
2017-05-18T10:54:09.850Z,27.00
2017-05-18T10:56:39.097Z,27.10
2017-05-18T10:59:08.227Z,27.20
2017-05-18T11:01:37.434Z,27.30
2017-05-18T11:04:06.559Z,27.20
2017-05-18T11:06:35.728Z,27.20
2017-05-18T11:09:05.082Z,27.30
2017-05-18T11:11:34.281Z,27.20
2017-05-18T11:14:03.603Z,27.20
2017-05-18T11:16:32.771Z,27.30
2017-05-18T11:19:01.915Z,27.40
2017-05-18T11:21:31.347Z,27.50
2017-05-18T11:24:00.694Z,27.60
2017-05-18T11:26:29.853Z,27.80
2017-05-18T11:28:58.961Z,27.90
2017-05-18T11:31:28.138Z,27.90
2017-05-18T11:33:57.228Z,27.90
2017-05-18T11:36:26.360Z,28.00
2017-05-18T11:38:55.462Z,27.90
2017-05-18T11:41:24.580Z,28.00
2017-05-18T11:43:53.720Z,28.20
2017-05-18T11:46:29.536Z,28.20
2017-05-18T11:48:58.631Z,28.30
2017-05-18T11:51:28.374Z,28.40
2017-05-18T11:53:57.459Z,28.40
2017-05-18T11:56:27.280Z,28.40
2017-05-18T11:58:56.451Z,28.40
2017-05-18T12:01:25.605Z,28.20
2017-05-18T12:03:54.743Z,28.10
2017-05-18T12:06:23.877Z,28.00
2017-05-18T12:08:53.053Z,28.00
2017-05-18T12:11:22.184Z,28.10
2017-05-18T12:13:51.380Z,28.20
2017-05-18T12:16:20.508Z,28.20
2017-05-18T12:18:49.640Z,28.20
2017-05-18T12:21:18.799Z,28.20
2017-05-18T12:23:47.943Z,28.30
2017-05-18T12:26:17.029Z,28.40
2017-05-18T12:28:46.184Z,28.50
2017-05-18T12:31:15.260Z,28.70
2017-05-18T12:33:44.398Z,28.90
2017-05-18T12:36:13.504Z,28.90
2017-05-18T12:38:43.665Z,28.90
2017-05-18T12:41:13.140Z,29.00
2017-05-18T12:43:43.032Z,28.80
2017-05-18T12:46:12.364Z,28.60
2017-05-18T12:48:41.524Z,28.50
2017-05-18T12:51:10.628Z,28.70
2017-05-18T12:53:39.869Z,28.60
2017-05-18T12:56:09.004Z,28.50
2017-05-18T12:58:38.110Z,28.40
2017-05-18T13:01:07.249Z,28.50
2017-05-18T13:03:36.376Z,28.50
2017-05-18T13:06:05.516Z,28.60
2017-05-18T13:08:35.380Z,28.60
2017-05-18T13:11:04.459Z,28.90
2017-05-18T13:13:33.601Z,29.20
2017-05-18T13:16:02.772Z,29.40
2017-05-18T13:18:31.911Z,29.50
2017-05-18T13:21:01.035Z,29.50
2017-05-18T13:23:30.203Z,29.50
2017-05-18T13:25:59.328Z,29.60
2017-05-18T13:28:28.514Z,29.70
2017-05-18T13:30:57.687Z,29.70
2017-05-18T13:33:27.542Z,29.70
2017-05-18T13:35:57.519Z,29.80
2017-05-18T13:38:26.616Z,29.90
2017-05-18T13:40:55.774Z,30.00
2017-05-18T13:43:24.890Z,29.70
2017-05-18T13:45:54.015Z,29.50
2017-05-18T13:48:23.135Z,29.50
2017-05-18T13:50:52.251Z,29.40
2017-05-18T13:53:21.359Z,29.20
2017-05-18T13:55:50.487Z,29.20
2017-05-18T13:58:19.540Z,29.40
2017-05-18T14:00:48.657Z,29.50
2017-05-18T14:03:17.771Z,29.50
2017-05-18T14:05:47.630Z,29.30
2017-05-18T14:08:16.729Z,29.30
2017-05-18T14:10:45.843Z,29.20
2017-05-18T14:13:14.920Z,29.40
2017-05-18T14:15:44.048Z,29.60
2017-05-18T14:18:13.127Z,29.70
2017-05-18T14:20:42.257Z,29.90
2017-05-18T14:23:11.344Z,30.20
2017-05-18T14:25:41.246Z,30.40
2017-05-18T14:28:10.327Z,30.70
2017-05-18T14:30:39.577Z,30.90
2017-05-18T14:33:08.680Z,31.30
2017-05-18T14:35:37.810Z,31.40
2017-05-18T14:38:06.935Z,31.30
2017-05-18T14:40:36.033Z,31.00
2017-05-18T14:43:05.107Z,30.90
2017-05-18T14:45:34.223Z,30.80
2017-05-18T14:48:03.343Z,30.50
2017-05-18T14:50:32.455Z,30.20
2017-05-18T14:53:01.535Z,29.90
2017-05-18T14:55:30.671Z,29.70
2017-05-18T14:57:59.789Z,29.40
2017-05-18T15:00:29.621Z,28.90
2017-05-18T15:02:59.655Z,28.70
2017-05-18T15:05:28.731Z,28.50
2017-05-18T15:07:57.882Z,28.30
2017-05-18T15:10:26.962Z,27.40
2017-05-18T15:12:56.131Z,26.00
2017-05-18T15:15:25.229Z,25.10
2017-05-18T15:17:54.309Z,24.20
2017-05-18T15:20:24.128Z,23.50
2017-05-18T15:22:53.211Z,22.80
2017-05-18T15:25:22.373Z,22.40
2017-05-18T15:27:52.210Z,22.10
2017-05-18T15:30:21.363Z,21.80
2017-05-18T15:32:50.437Z,21.20
2017-05-18T15:35:19.557Z,20.60
2017-05-18T15:37:48.616Z,19.80
2017-05-18T15:40:17.738Z,19.30
2017-05-18T15:42:47.002Z,19.00
2017-05-18T15:45:16.168Z,18.80
2017-05-18T15:47:45.298Z,18.70
2017-05-18T15:50:14.423Z,18.60
2017-05-18T15:52:43.495Z,18.50
2017-05-18T15:55:12.628Z,18.30
2017-05-18T15:57:41.784Z,18.30
2017-05-18T16:00:10.864Z,18.20
2017-05-18T16:02:40.059Z,18.20
2017-05-18T16:05:09.412Z,18.20
2017-05-18T16:07:38.571Z,18.10
2017-05-18T16:10:08.593Z,18.10
2017-05-18T16:12:37.822Z,18.10
2017-05-18T16:15:06.960Z,18.10
2017-05-18T16:17:36.043Z,18.20
2017-05-18T16:20:05.542Z,18.30
2017-05-18T16:22:34.647Z,18.40
2017-05-18T16:25:04.245Z,18.40
2017-05-18T16:27:33.389Z,18.50
2017-05-18T16:30:02.524Z,18.60
2017-05-18T16:32:32.408Z,18.70
2017-05-18T16:35:01.498Z,18.80
2017-05-18T16:37:30.620Z,18.80
2017-05-18T16:39:59.714Z,18.90
2017-05-18T16:42:28.823Z,18.90
2017-05-18T16:44:58.021Z,18.90
2017-05-18T16:47:26.360Z,18.80
2017-05-18T16:49:55.440Z,19.00
2017-05-18T16:52:24.575Z,19.10
2017-05-18T16:54:53.683Z,19.10
2017-05-18T16:57:22.788Z,19.20
2017-05-18T16:59:51.980Z,19.30
2017-05-18T17:02:21.126Z,19.30
2017-05-18T17:04:50.285Z,19.40
2017-05-18T17:07:19.435Z,19.50
2017-05-18T17:09:50.147Z,19.60
2017-05-18T17:12:19.361Z,19.60
2017-05-18T17:14:48.487Z,19.80
2017-05-18T17:17:17.835Z,19.80
2017-05-18T17:19:46.983Z,19.90
2017-05-18T17:22:16.071Z,19.90
2017-05-18T17:24:46.013Z,19.80
2017-05-18T17:27:15.859Z,19.70
2017-05-18T17:29:45.024Z,19.70
2017-05-18T17:32:14.196Z,19.60
2017-05-18T17:34:43.374Z,19.60
2017-05-18T17:37:12.571Z,19.70
2017-05-18T17:39:41.738Z,19.80
2017-05-18T17:42:10.902Z,19.80
2017-05-18T17:44:40.006Z,19.90
2017-05-18T17:47:09.220Z,19.90
2017-05-18T17:49:38.432Z,19.80
2017-05-18T17:52:07.570Z,19.80
2017-05-18T17:54:36.741Z,19.80
2017-05-18T17:57:05.891Z,19.80
2017-05-18T17:59:35.079Z,19.80
2017-05-18T18:02:04.313Z,19.70
2017-05-18T18:04:33.537Z,19.70
2017-05-18T18:07:02.722Z,19.80
2017-05-18T18:09:31.930Z,19.70
2017-05-18T18:12:01.079Z,19.60
2017-05-18T18:14:30.386Z,19.60
2017-05-18T18:16:59.579Z,19.60
2017-05-18T18:19:28.792Z,19.60
2017-05-18T18:21:57.940Z,19.60
2017-05-18T18:24:27.152Z,19.60
2017-05-18T18:26:56.316Z,19.60
2017-05-18T18:29:25.403Z,19.60
2017-05-18T18:31:55.384Z,19.60
2017-05-18T18:34:24.494Z,19.60
2017-05-18T18:36:53.643Z,19.60
2017-05-18T18:39:23.488Z,19.50
2017-05-18T18:41:52.640Z,19.50
2017-05-18T18:44:21.703Z,19.40
2017-05-18T18:46:50.804Z,19.40
2017-05-18T18:49:19.982Z,19.40
2017-05-18T18:51:49.372Z,19.40
2017-05-18T18:54:18.445Z,19.40
2017-05-18T18:56:48.328Z,19.40
2017-05-18T18:59:17.423Z,19.40
2017-05-18T19:01:46.520Z,19.40
2017-05-18T19:04:16.517Z,19.30
2017-05-18T19:06:45.727Z,19.40
2017-05-18T19:09:14.970Z,19.30
2017-05-18T19:11:44.149Z,19.30
2017-05-18T19:14:13.534Z,19.20
2017-05-18T19:16:42.627Z,19.20
2017-05-18T19:19:11.756Z,19.20
2017-05-18T19:21:41.603Z,19.20
2017-05-18T19:24:10.668Z,19.20
2017-05-18T19:26:40.092Z,19.20
2017-05-18T19:29:09.200Z,19.20
2017-05-18T19:31:38.391Z,19.20
2017-05-18T19:34:07.495Z,19.10
2017-05-18T19:36:36.677Z,19.10
2017-05-18T19:39:05.939Z,19.00
2017-05-18T19:41:35.806Z,18.90
2017-05-18T19:44:04.878Z,18.90
2017-05-18T19:46:34.018Z,18.90
2017-05-18T19:49:03.087Z,18.90
2017-05-18T19:51:32.237Z,18.90
2017-05-18T19:54:02.071Z,18.90
2017-05-18T19:56:31.208Z,19.00
2017-05-18T19:59:00.301Z,19.00
2017-05-18T20:01:29.431Z,19.00
2017-05-18T20:03:58.546Z,19.00
2017-05-18T20:06:27.678Z,19.00
2017-05-18T20:08:56.819Z,19.10
2017-05-18T20:11:25.915Z,19.10
2017-05-18T20:13:55.894Z,19.10
2017-05-18T20:16:25.061Z,19.10
2017-05-18T20:18:54.188Z,19.20
2017-05-18T20:21:23.362Z,19.10
2017-05-18T20:23:52.665Z,19.10
2017-05-18T20:26:21.920Z,19.20
2017-05-18T20:28:51.788Z,19.10
2017-05-18T20:31:20.864Z,19.20
2017-05-18T20:33:49.992Z,19.20
2017-05-18T20:36:19.073Z,19.20
2017-05-18T20:38:48.232Z,19.20
2017-05-18T20:41:17.348Z,19.20
2017-05-18T20:43:46.511Z,19.30
2017-05-18T20:46:15.950Z,19.30
2017-05-18T20:48:45.010Z,19.30
2017-05-18T20:51:14.123Z,19.30
2017-05-18T20:53:43.209Z,19.20
2017-05-18T20:56:12.629Z,19.20
2017-05-18T20:58:41.719Z,19.20
2017-05-18T21:01:10.861Z,19.20
2017-05-18T21:03:40.730Z,19.20
2017-05-18T21:06:09.818Z,19.30
2017-05-18T21:08:38.915Z,19.30
2017-05-18T21:11:08.095Z,19.30
2017-05-18T21:13:37.222Z,19.40
2017-05-18T21:16:06.309Z,19.40
2017-05-18T21:18:35.464Z,19.40
2017-05-18T21:21:05.267Z,19.30
2017-05-18T21:23:34.374Z,19.40
2017-05-18T21:26:03.427Z,19.40
2017-05-18T21:28:32.539Z,19.40
2017-05-18T21:31:01.604Z,19.40
2017-05-18T21:33:30.714Z,19.40
2017-05-18T21:35:59.852Z,19.40
2017-05-18T21:38:28.914Z,19.40
2017-05-18T21:40:57.994Z,19.30
2017-05-18T21:43:27.878Z,19.30
2017-05-18T21:45:56.950Z,19.30
2017-05-18T21:48:26.072Z,19.40
2017-05-18T21:50:55.163Z,19.40
2017-05-18T21:53:24.219Z,19.40
2017-05-18T21:55:54.537Z,19.30
2017-05-18T21:58:24.343Z,19.30
2017-05-18T22:00:54.198Z,19.40
2017-05-18T22:03:23.268Z,19.50
2017-05-18T22:05:53.123Z,19.40
2017-05-18T22:08:22.198Z,19.50
2017-05-18T22:10:51.309Z,19.40
2017-05-18T22:13:20.450Z,19.40
2017-05-18T22:15:49.558Z,19.40
2017-05-18T22:18:19.417Z,19.40
2017-05-18T22:20:48.504Z,19.50
2017-05-18T22:23:17.637Z,19.40
2017-05-18T22:25:46.710Z,19.40
2017-05-18T22:28:15.838Z,19.40
2017-05-18T22:30:44.915Z,19.30
2017-05-18T22:33:14.066Z,19.20
2017-05-18T22:35:43.131Z,19.20
2017-05-18T22:38:12.980Z,19.20
2017-05-18T22:40:42.066Z,19.10
2017-05-18T22:43:11.178Z,19.10
2017-05-18T22:45:40.304Z,19.10
2017-05-18T22:48:09.367Z,19.10
2017-05-18T22:50:38.479Z,19.20
2017-05-18T22:53:07.587Z,19.20
2017-05-18T22:55:36.654Z,19.20
2017-05-18T22:58:05.753Z,19.20
2017-05-18T23:00:34.855Z,19.20
2017-05-18T23:03:04.243Z,19.20
2017-05-18T23:05:33.370Z,19.20
2017-05-18T23:08:02.491Z,19.20
2017-05-18T23:10:31.550Z,19.20
2017-05-18T23:13:00.651Z,19.20
2017-05-18T23:15:29.705Z,19.20
2017-05-18T23:17:58.793Z,19.20
2017-05-18T23:20:27.930Z,19.20
2017-05-18T23:22:57.019Z,19.20
2017-05-18T23:25:26.127Z,19.20
2017-05-18T23:27:55.191Z,19.20
2017-05-18T23:30:24.279Z,19.20
2017-05-18T23:32:53.374Z,19.10
2017-05-18T23:35:22.442Z,19.10
2017-05-18T23:37:52.291Z,19.00
2017-05-18T23:40:21.357Z,19.00
2017-05-18T23:42:50.495Z,19.00
2017-05-18T23:45:19.602Z,19.00
2017-05-18T23:47:48.710Z,19.00
2017-05-18T23:50:18.536Z,18.90
2017-05-18T23:52:48.383Z,18.90
2017-05-18T23:55:17.455Z,18.90
2017-05-18T23:57:46.554Z,18.90
